sensor_id;sensor_type;location;lat;lon;timestamp;P1;durP1;ratioP1;P2;durP2;ratioP2
59516;SDS011;45342;42.662;27.718;2022-09-09T00:01:08;3.15;;;2.65;;
59516;SDS011;45342;42.662;27.718;2022-09-09T00:04:03;3.78;;;2.67;;
59516;SDS011;45342;42.662;27.718;2022-09-09T00:07:23;4.13;;;2.58;;
59516;SDS011;45342;42.662;27.718;2022-09-09T00:12:36;3.67;;;2.60;;
59516;SDS011;45342;42.662;27.718;2022-09-09T00:15:16;3.08;;;2.63;;
59516;SDS011;45342;42.662;27.718;2022-09-09T00:23:00;2.95;;;2.65;;
59516;SDS011;45342;42.662;27.718;2022-09-09T00:25:49;2.92;;;2.63;;
59516;SDS011;45342;42.662;27.718;2022-09-09T00:28:24;2.83;;;2.50;;
59516;SDS011;45342;42.662;27.718;2022-09-09T00:30:52;3.08;;;2.50;;
59516;SDS011;45342;42.662;27.718;2022-09-09T00:33:22;3.05;;;2.67;;
59516;SDS011;45342;42.662;27.718;2022-09-09T00:35:52;3.92;;;2.85;;
59516;SDS011;45342;42.662;27.718;2022-09-09T00:43:36;2.95;;;2.40;;
59516;SDS011;45342;42.662;27.718;2022-09-09T00:48:54;5.18;;;2.50;;
59516;SDS011;45342;42.662;27.718;2022-09-09T00:53:58;3.70;;;2.55;;
59516;SDS011;45342;42.662;27.718;2022-09-09T00:56:38;2.50;;;2.30;;
59516;SDS011;45342;42.662;27.718;2022-09-09T00:59:30;4.00;;;2.45;;
59516;SDS011;45342;42.662;27.718;2022-09-09T01:02:02;2.60;;;2.40;;
59516;SDS011;45342;42.662;27.718;2022-09-09T01:04:35;4.85;;;2.75;;
59516;SDS011;45342;42.662;27.718;2022-09-09T01:07:10;3.33;;;2.47;;
59516;SDS011;45342;42.662;27.718;2022-09-09T01:10:00;3.15;;;2.50;;
59516;SDS011;45342;42.662;27.718;2022-09-09T01:15:07;3.72;;;2.40;;
59516;SDS011;45342;42.662;27.718;2022-09-09T01:28:28;2.88;;;2.42;;
59516;SDS011;45342;42.662;27.718;2022-09-09T01:30:55;2.60;;;2.40;;
59516;SDS011;45342;42.662;27.718;2022-09-09T01:33:21;2.97;;;2.28;;
59516;SDS011;45342;42.662;27.718;2022-09-09T01:38:16;2.83;;;2.55;;
59516;SDS011;45342;42.662;27.718;2022-09-09T01:40:42;2.50;;;2.30;;
59516;SDS011;45342;42.662;27.718;2022-09-09T01:45:34;2.70;;;2.17;;
59516;SDS011;45342;42.662;27.718;2022-09-09T01:48:00;2.63;;;2.30;;
59516;SDS011;45342;42.662;27.718;2022-09-09T01:50:27;2.63;;;2.35;;
59516;SDS011;45342;42.662;27.718;2022-09-09T01:52:55;2.22;;;2.03;;
59516;SDS011;45342;42.662;27.718;2022-09-09T01:55:26;3.40;;;2.25;;
59516;SDS011;45342;42.662;27.718;2022-09-09T01:58:43;2.63;;;2.40;;
59516;SDS011;45342;42.662;27.718;2022-09-09T02:00:53;2.58;;;2.38;;
59516;SDS011;45342;42.662;27.718;2022-09-09T02:03:26;2.60;;;2.40;;
59516;SDS011;45342;42.662;27.718;2022-09-09T02:08:57;2.90;;;2.35;;
59516;SDS011;45342;42.662;27.718;2022-09-09T02:11:25;2.50;;;2.30;;
59516;SDS011;45342;42.662;27.718;2022-09-09T02:14:00;2.47;;;2.28;;
59516;SDS011;45342;42.662;27.718;2022-09-09T02:16:44;3.47;;;2.30;;
59516;SDS011;45342;42.662;27.718;2022-09-09T02:21:52;2.30;;;2.10;;
59516;SDS011;45342;42.662;27.718;2022-09-09T02:24:19;3.67;;;2.40;;
59516;SDS011;45342;42.662;27.718;2022-09-09T02:26:45;2.95;;;2.58;;
59516;SDS011;45342;42.662;27.718;2022-09-09T02:29:23;2.70;;;2.15;;
59516;SDS011;45342;42.662;27.718;2022-09-09T02:31:50;2.88;;;2.38;;
59516;SDS011;45342;42.662;27.718;2022-09-09T02:34:18;2.63;;;2.40;;
59516;SDS011;45342;42.662;27.718;2022-09-09T02:36:45;2.40;;;2.20;;
59516;SDS011;45342;42.662;27.718;2022-09-09T02:39:12;2.97;;;2.25;;
59516;SDS011;45342;42.662;27.718;2022-09-09T02:41:39;2.38;;;2.17;;
59516;SDS011;45342;42.662;27.718;2022-09-09T02:44:10;2.67;;;2.40;;
59516;SDS011;45342;42.662;27.718;2022-09-09T02:46:44;2.45;;;2.22;;
59516;SDS011;45342;42.662;27.718;2022-09-09T02:53:36;3.15;;;2.25;;
59516;SDS011;45342;42.662;27.718;2022-09-09T02:55:38;2.90;;;2.10;;
59516;SDS011;45342;42.662;27.718;2022-09-09T02:58:05;3.63;;;2.22;;
59516;SDS011;45342;42.662;27.718;2022-09-09T03:00:33;3.75;;;2.13;;
59516;SDS011;45342;42.662;27.718;2022-09-09T03:03:01;3.13;;;2.30;;
59516;SDS011;45342;42.662;27.718;2022-09-09T03:05:28;2.33;;;2.10;;
59516;SDS011;45342;42.662;27.718;2022-09-09T03:07:54;2.90;;;2.38;;
59516;SDS011;45342;42.662;27.718;2022-09-09T03:10:19;3.63;;;2.20;;
59516;SDS011;45342;42.662;27.718;2022-09-09T03:12:45;2.60;;;2.25;;
59516;SDS011;45342;42.662;27.718;2022-09-09T03:15:11;2.10;;;1.90;;
59516;SDS011;45342;42.662;27.718;2022-09-09T03:17:36;2.50;;;2.30;;
59516;SDS011;45342;42.662;27.718;2022-09-09T03:20:03;2.30;;;2.10;;
59516;SDS011;45342;42.662;27.718;2022-09-09T03:22:29;3.22;;;2.63;;
59516;SDS011;45342;42.662;27.718;2022-09-09T03:24:54;2.35;;;1.95;;
59516;SDS011;45342;42.662;27.718;2022-09-09T03:29:46;2.25;;;1.92;;
59516;SDS011;45342;42.662;27.718;2022-09-09T03:32:12;2.40;;;2.20;;
59516;SDS011;45342;42.662;27.718;2022-09-09T03:34:38;2.55;;;2.15;;
59516;SDS011;45342;42.662;27.718;2022-09-09T03:37:07;2.30;;;2.10;;
59516;SDS011;45342;42.662;27.718;2022-09-09T03:39:32;2.20;;;2.00;;
59516;SDS011;45342;42.662;27.718;2022-09-09T03:44:23;3.03;;;2.25;;
59516;SDS011;45342;42.662;27.718;2022-09-09T03:46:49;3.28;;;2.08;;
59516;SDS011;45342;42.662;27.718;2022-09-09T03:49:15;2.58;;;2.00;;
59516;SDS011;45342;42.662;27.718;2022-09-09T03:51:41;2.47;;;2.10;;
59516;SDS011;45342;42.662;27.718;2022-09-09T03:54:07;2.78;;;2.10;;
59516;SDS011;45342;42.662;27.718;2022-09-09T03:56:35;2.17;;;1.92;;
59516;SDS011;45342;42.662;27.718;2022-09-09T03:59:01;2.88;;;2.10;;
59516;SDS011;45342;42.662;27.718;2022-09-09T04:01:27;2.90;;;2.25;;
59516;SDS011;45342;42.662;27.718;2022-09-09T04:03:53;2.72;;;2.00;;
59516;SDS011;45342;42.662;27.718;2022-09-09T04:06:20;2.53;;;2.03;;
59516;SDS011;45342;42.662;27.718;2022-09-09T04:08:46;2.35;;;1.95;;
59516;SDS011;45342;42.662;27.718;2022-09-09T04:11:14;2.72;;;2.28;;
59516;SDS011;45342;42.662;27.718;2022-09-09T04:13:41;2.13;;;1.83;;
59516;SDS011;45342;42.662;27.718;2022-09-09T04:16:09;2.47;;;1.88;;
59516;SDS011;45342;42.662;27.718;2022-09-09T04:18:36;1.90;;;1.70;;
59516;SDS011;45342;42.662;27.718;2022-09-09T04:21:01;1.85;;;1.75;;
59516;SDS011;45342;42.662;27.718;2022-09-09T04:23:28;2.50;;;2.10;;
59516;SDS011;45342;42.662;27.718;2022-09-09T04:25:55;2.17;;;1.98;;
59516;SDS011;45342;42.662;27.718;2022-09-09T04:28:23;3.60;;;1.88;;
59516;SDS011;45342;42.662;27.718;2022-09-09T04:30:49;2.65;;;2.20;;
59516;SDS011;45342;42.662;27.718;2022-09-09T04:33:15;2.25;;;2.05;;
59516;SDS011;45342;42.662;27.718;2022-09-09T04:35:49;2.78;;;2.10;;
59516;SDS011;45342;42.662;27.718;2022-09-09T04:38:15;2.33;;;2.00;;
59516;SDS011;45342;42.662;27.718;2022-09-09T04:40:51;2.55;;;2.00;;
59516;SDS011;45342;42.662;27.718;2022-09-09T04:43:17;2.00;;;1.90;;
59516;SDS011;45342;42.662;27.718;2022-09-09T04:45:46;2.10;;;1.90;;
59516;SDS011;45342;42.662;27.718;2022-09-09T04:48:12;2.35;;;2.15;;
59516;SDS011;45342;42.662;27.718;2022-09-09T04:50:38;2.20;;;2.00;;
59516;SDS011;45342;42.662;27.718;2022-09-09T04:53:05;2.03;;;1.80;;
59516;SDS011;45342;42.662;27.718;2022-09-09T04:55:31;1.85;;;1.75;;
59516;SDS011;45342;42.662;27.718;2022-09-09T04:57:58;2.20;;;2.00;;
59516;SDS011;45342;42.662;27.718;2022-09-09T05:00:28;3.50;;;2.10;;
59516;SDS011;45342;42.662;27.718;2022-09-09T05:02:54;3.58;;;2.10;;
59516;SDS011;45342;42.662;27.718;2022-09-09T05:07:45;4.25;;;1.95;;
59516;SDS011;45342;42.662;27.718;2022-09-09T05:10:12;2.60;;;2.20;;
59516;SDS011;45342;42.662;27.718;2022-09-09T05:12:39;2.38;;;2.15;;
59516;SDS011;45342;42.662;27.718;2022-09-09T05:15:06;2.00;;;1.90;;
59516;SDS011;45342;42.662;27.718;2022-09-09T05:17:32;2.10;;;1.90;;
59516;SDS011;45342;42.662;27.718;2022-09-09T05:19:59;3.40;;;1.90;;
59516;SDS011;45342;42.662;27.718;2022-09-09T05:22:24;3.00;;;2.28;;
59516;SDS011;45342;42.662;27.718;2022-09-09T05:24:50;2.78;;;2.30;;
59516;SDS011;45342;42.662;27.718;2022-09-09T05:29:43;1.92;;;1.80;;
59516;SDS011;45342;42.662;27.718;2022-09-09T05:32:09;2.83;;;1.92;;
59516;SDS011;45342;42.662;27.718;2022-09-09T05:34:35;2.38;;;2.00;;
59516;SDS011;45342;42.662;27.718;2022-09-09T05:37:02;2.67;;;1.90;;
59516;SDS011;45342;42.662;27.718;2022-09-09T05:39:29;2.90;;;2.08;;
59516;SDS011;45342;42.662;27.718;2022-09-09T05:41:55;2.40;;;2.00;;
59516;SDS011;45342;42.662;27.718;2022-09-09T05:44:20;1.95;;;1.75;;
59516;SDS011;45342;42.662;27.718;2022-09-09T05:46:48;1.95;;;1.75;;
59516;SDS011;45342;42.662;27.718;2022-09-09T05:49:17;2.38;;;2.10;;
59516;SDS011;45342;42.662;27.718;2022-09-09T05:51:46;3.72;;;1.95;;
59516;SDS011;45342;42.662;27.718;2022-09-09T05:54:13;2.00;;;1.80;;
59516;SDS011;45342;42.662;27.718;2022-09-09T05:56:40;2.53;;;2.10;;
59516;SDS011;45342;42.662;27.718;2022-09-09T05:59:06;3.58;;;1.92;;
59516;SDS011;45342;42.662;27.718;2022-09-09T06:03:58;1.85;;;1.67;;
59516;SDS011;45342;42.662;27.718;2022-09-09T06:08:54;1.95;;;1.85;;
59516;SDS011;45342;42.662;27.718;2022-09-09T06:11:22;2.55;;;1.90;;
59516;SDS011;45342;42.662;27.718;2022-09-09T06:13:51;2.22;;;1.95;;
59516;SDS011;45342;42.662;27.718;2022-09-09T06:16:19;2.30;;;2.10;;
59516;SDS011;45342;42.662;27.718;2022-09-09T06:18:48;4.22;;;2.00;;
59516;SDS011;45342;42.662;27.718;2022-09-09T06:21:27;2.08;;;1.90;;
59516;SDS011;45342;42.662;27.718;2022-09-09T06:23:55;2.00;;;1.83;;
59516;SDS011;45342;42.662;27.718;2022-09-09T06:26:39;2.83;;;1.77;;
59516;SDS011;45342;42.662;27.718;2022-09-09T06:29:08;2.00;;;1.90;;
59516;SDS011;45342;42.662;27.718;2022-09-09T06:31:34;2.47;;;2.10;;
59516;SDS011;45342;42.662;27.718;2022-09-09T06:34:05;1.80;;;1.55;;
59516;SDS011;45342;42.662;27.718;2022-09-09T06:36:33;1.98;;;1.77;;
59516;SDS011;45342;42.662;27.718;2022-09-09T06:39:00;2.70;;;2.20;;
59516;SDS011;45342;42.662;27.718;2022-09-09T06:41:27;2.28;;;1.80;;
59516;SDS011;45342;42.662;27.718;2022-09-09T06:43:54;1.63;;;1.50;;
59516;SDS011;45342;42.662;27.718;2022-09-09T06:46:23;2.67;;;1.73;;
59516;SDS011;45342;42.662;27.718;2022-09-09T06:48:53;2.90;;;2.10;;
59516;SDS011;45342;42.662;27.718;2022-09-09T06:51:23;1.70;;;1.60;;
59516;SDS011;45342;42.662;27.718;2022-09-09T06:53:51;2.95;;;2.10;;
59516;SDS011;45342;42.662;27.718;2022-09-09T06:59:00;2.33;;;2.10;;
59516;SDS011;45342;42.662;27.718;2022-09-09T07:01:31;2.20;;;1.83;;
59516;SDS011;45342;42.662;27.718;2022-09-09T07:03:58;2.95;;;1.80;;
59516;SDS011;45342;42.662;27.718;2022-09-09T07:06:26;1.98;;;1.88;;
59516;SDS011;45342;42.662;27.718;2022-09-09T07:08:57;2.42;;;1.80;;
59516;SDS011;45342;42.662;27.718;2022-09-09T07:11:25;1.98;;;1.77;;
59516;SDS011;45342;42.662;27.718;2022-09-09T07:13:53;2.25;;;1.77;;
59516;SDS011;45342;42.662;27.718;2022-09-09T07:16:19;2.42;;;1.80;;
59516;SDS011;45342;42.662;27.718;2022-09-09T07:18:48;1.90;;;1.80;;
59516;SDS011;45342;42.662;27.718;2022-09-09T07:21:15;2.55;;;2.00;;
59516;SDS011;45342;42.662;27.718;2022-09-09T07:23:41;2.10;;;1.90;;
59516;SDS011;45342;42.662;27.718;2022-09-09T07:26:08;2.33;;;1.95;;
59516;SDS011;45342;42.662;27.718;2022-09-09T07:28:38;2.03;;;1.83;;
59516;SDS011;45342;42.662;27.718;2022-09-09T07:33:31;3.05;;;1.60;;
59516;SDS011;45342;42.662;27.718;2022-09-09T07:36:12;2.38;;;1.98;;
59516;SDS011;45342;42.662;27.718;2022-09-09T07:38:54;3.35;;;1.92;;
59516;SDS011;45342;42.662;27.718;2022-09-09T07:41:28;3.10;;;1.70;;
59516;SDS011;45342;42.662;27.718;2022-09-09T07:43:57;2.33;;;1.80;;
59516;SDS011;45342;42.662;27.718;2022-09-09T07:46:24;2.47;;;2.03;;
59516;SDS011;45342;42.662;27.718;2022-09-09T07:48:52;2.30;;;1.90;;
59516;SDS011;45342;42.662;27.718;2022-09-09T07:51:20;1.73;;;1.55;;
59516;SDS011;45342;42.662;27.718;2022-09-09T07:53:54;2.85;;;1.98;;
59516;SDS011;45342;42.662;27.718;2022-09-09T07:56:25;3.63;;;1.83;;
59516;SDS011;45342;42.662;27.718;2022-09-09T07:58:52;3.00;;;1.85;;
59516;SDS011;45342;42.662;27.718;2022-09-09T08:01:19;2.65;;;1.92;;
59516;SDS011;45342;42.662;27.718;2022-09-09T08:03:52;2.13;;;1.92;;
59516;SDS011;45342;42.662;27.718;2022-09-09T08:06:19;2.65;;;2.00;;
59516;SDS011;45342;42.662;27.718;2022-09-09T08:08:45;2.53;;;1.80;;
59516;SDS011;45342;42.662;27.718;2022-09-09T08:11:15;2.45;;;1.80;;
59516;SDS011;45342;42.662;27.718;2022-09-09T08:13:41;2.10;;;1.83;;
59516;SDS011;45342;42.662;27.718;2022-09-09T08:16:12;3.47;;;1.73;;
59516;SDS011;45342;42.662;27.718;2022-09-09T08:18:39;3.17;;;2.15;;
59516;SDS011;45342;42.662;27.718;2022-09-09T08:21:13;1.95;;;1.70;;
59516;SDS011;45342;42.662;27.718;2022-09-09T08:23:40;2.75;;;1.70;;
59516;SDS011;45342;42.662;27.718;2022-09-09T08:28:40;3.35;;;2.13;;
59516;SDS011;45342;42.662;27.718;2022-09-09T08:31:07;3.97;;;2.17;;
59516;SDS011;45342;42.662;27.718;2022-09-09T08:33:33;3.08;;;2.00;;
59516;SDS011;45342;42.662;27.718;2022-09-09T08:35:58;4.45;;;2.00;;
59516;SDS011;45342;42.662;27.718;2022-09-09T08:38:24;2.58;;;1.83;;
59516;SDS011;45342;42.662;27.718;2022-09-09T08:40:50;2.30;;;1.73;;
59516;SDS011;45342;42.662;27.718;2022-09-09T08:43:18;2.17;;;1.83;;
59516;SDS011;45342;42.662;27.718;2022-09-09T08:51:30;4.72;;;1.95;;
59516;SDS011;45342;42.662;27.718;2022-09-09T08:53:58;2.28;;;2.05;;
59516;SDS011;45342;42.662;27.718;2022-09-09T08:56:25;2.80;;;1.90;;
59516;SDS011;45342;42.662;27.718;2022-09-09T08:58:52;2.20;;;1.80;;
59516;SDS011;45342;42.662;27.718;2022-09-09T09:01:32;2.80;;;1.98;;
59516;SDS011;45342;42.662;27.718;2022-09-09T09:11:59;3.55;;;1.77;;
59516;SDS011;45342;42.662;27.718;2022-09-09T09:14:29;3.28;;;1.85;;
59516;SDS011;45342;42.662;27.718;2022-09-09T09:17:00;2.28;;;1.80;;
59516;SDS011;45342;42.662;27.718;2022-09-09T09:19:27;3.47;;;2.10;;
59516;SDS011;45342;42.662;27.718;2022-09-09T09:24:43;3.05;;;1.90;;
59516;SDS011;45342;42.662;27.718;2022-09-09T09:27:13;2.20;;;2.00;;
59516;SDS011;45342;42.662;27.718;2022-09-09T09:29:40;2.25;;;1.60;;
59516;SDS011;45342;42.662;27.718;2022-09-09T09:32:10;2.67;;;1.67;;
59516;SDS011;45342;42.662;27.718;2022-09-09T09:34:38;3.53;;;1.95;;
59516;SDS011;45342;42.662;27.718;2022-09-09T09:37:16;2.33;;;1.90;;
59516;SDS011;45342;42.662;27.718;2022-09-09T09:39:53;2.08;;;1.92;;
59516;SDS011;45342;42.662;27.718;2022-09-09T09:42:18;2.10;;;1.60;;
59516;SDS011;45342;42.662;27.718;2022-09-09T09:47:14;2.20;;;1.63;;
59516;SDS011;45342;42.662;27.718;2022-09-09T09:49:57;3.17;;;1.98;;
59516;SDS011;45342;42.662;27.718;2022-09-09T09:52:28;1.98;;;1.60;;
59516;SDS011;45342;42.662;27.718;2022-09-09T09:54:55;2.28;;;1.70;;
59516;SDS011;45342;42.662;27.718;2022-09-09T09:57:26;1.95;;;1.77;;
59516;SDS011;45342;42.662;27.718;2022-09-09T10:00:04;2.45;;;1.73;;
59516;SDS011;45342;42.662;27.718;2022-09-09T10:02:40;2.00;;;1.80;;
59516;SDS011;45342;42.662;27.718;2022-09-09T10:05:15;2.58;;;1.70;;
59516;SDS011;45342;42.662;27.718;2022-09-09T10:07:43;2.83;;;1.73;;
59516;SDS011;45342;42.662;27.718;2022-09-09T10:10:20;6.63;;;2.03;;
59516;SDS011;45342;42.662;27.718;2022-09-09T10:13:00;3.67;;;2.20;;
59516;SDS011;45342;42.662;27.718;2022-09-09T10:34:34;3.33;;;1.60;;
59516;SDS011;45342;42.662;27.718;2022-09-09T10:37:04;2.28;;;1.98;;
59516;SDS011;45342;42.662;27.718;2022-09-09T10:39:53;2.28;;;1.60;;
59516;SDS011;45342;42.662;27.718;2022-09-09T10:42:28;3.58;;;1.67;;
59516;SDS011;45342;42.662;27.718;2022-09-09T10:47:39;2.58;;;1.80;;
59516;SDS011;45342;42.662;27.718;2022-09-09T10:55:45;2.75;;;1.92;;
59516;SDS011;45342;42.662;27.718;2022-09-09T10:58:20;1.80;;;1.70;;
59516;SDS011;45342;42.662;27.718;2022-09-09T11:00:54;2.45;;;1.67;;
59516;SDS011;45342;42.662;27.718;2022-09-09T11:03:24;2.05;;;1.73;;
59516;SDS011;45342;42.662;27.718;2022-09-09T11:05:53;2.92;;;1.50;;
59516;SDS011;45342;42.662;27.718;2022-09-09T11:08:28;1.70;;;1.60;;
59516;SDS011;45342;42.662;27.718;2022-09-09T11:21:57;3.30;;;1.65;;
59516;SDS011;45342;42.662;27.718;2022-09-09T11:24:28;4.03;;;1.90;;
59516;SDS011;45342;42.662;27.718;2022-09-09T11:27:00;2.53;;;1.80;;
59516;SDS011;45342;42.662;27.718;2022-09-09T11:38:28;2.95;;;1.70;;
59516;SDS011;45342;42.662;27.718;2022-09-09T11:41:03;1.70;;;1.50;;
59516;SDS011;45342;42.662;27.718;2022-09-09T11:46:10;3.15;;;1.95;;
59516;SDS011;45342;42.662;27.718;2022-09-09T11:51:11;2.17;;;1.98;;
59516;SDS011;45342;42.662;27.718;2022-09-09T11:53:48;2.30;;;1.92;;
59516;SDS011;45342;42.662;27.718;2022-09-09T11:56:28;3.08;;;2.00;;
59516;SDS011;45342;42.662;27.718;2022-09-09T11:59:28;3.03;;;2.20;;
59516;SDS011;45342;42.662;27.718;2022-09-09T12:05:22;3.65;;;2.20;;
59516;SDS011;45342;42.662;27.718;2022-09-09T12:07:38;3.15;;;2.10;;
59516;SDS011;45342;42.662;27.718;2022-09-09T12:10:20;4.32;;;2.05;;
59516;SDS011;45342;42.662;27.718;2022-09-09T12:13:08;5.80;;;2.30;;
59516;SDS011;45342;42.662;27.718;2022-09-09T12:15:48;5.32;;;2.33;;
59516;SDS011;45342;42.662;27.718;2022-09-09T12:32:22;4.85;;;2.60;;
59516;SDS011;45342;42.662;27.718;2022-09-09T12:34:53;9.63;;;2.90;;
59516;SDS011;45342;42.662;27.718;2022-09-09T12:40:06;5.70;;;2.90;;
59516;SDS011;45342;42.662;27.718;2022-09-09T12:42:44;6.35;;;2.80;;
59516;SDS011;45342;42.662;27.718;2022-09-09T12:47:56;8.13;;;3.33;;
59516;SDS011;45342;42.662;27.718;2022-09-09T12:50:27;4.93;;;2.70;;
59516;SDS011;45342;42.662;27.718;2022-09-09T12:52:58;8.48;;;2.72;;
59516;SDS011;45342;42.662;27.718;2022-09-09T12:55:30;7.15;;;3.03;;
59516;SDS011;45342;42.662;27.718;2022-09-09T12:57:58;8.55;;;3.35;;
59516;SDS011;45342;42.662;27.718;2022-09-09T13:00:28;5.90;;;3.15;;
59516;SDS011;45342;42.662;27.718;2022-09-09T13:02:56;8.63;;;3.30;;
59516;SDS011;45342;42.662;27.718;2022-09-09T13:05:42;6.10;;;3.28;;
59516;SDS011;45342;42.662;27.718;2022-09-09T13:08:16;8.88;;;3.45;;
59516;SDS011;45342;42.662;27.718;2022-09-09T13:13:25;9.25;;;3.75;;
59516;SDS011;45342;42.662;27.718;2022-09-09T13:15:58;6.30;;;3.38;;
59516;SDS011;45342;42.662;27.718;2022-09-09T13:18:32;6.15;;;3.42;;
59516;SDS011;45342;42.662;27.718;2022-09-09T13:20:59;7.75;;;3.55;;
59516;SDS011;45342;42.662;27.718;2022-09-09T13:25:59;8.50;;;3.55;;
59516;SDS011;45342;42.662;27.718;2022-09-09T13:28:27;9.20;;;3.88;;
59516;SDS011;45342;42.662;27.718;2022-09-09T13:31:04;11.50;;;3.95;;
59516;SDS011;45342;42.662;27.718;2022-09-09T13:33:36;8.57;;;3.85;;
59516;SDS011;45342;42.662;27.718;2022-09-09T13:38:33;6.63;;;3.90;;
59516;SDS011;45342;42.662;27.718;2022-09-09T13:41:06;11.32;;;4.50;;
59516;SDS011;45342;42.662;27.718;2022-09-09T13:43:34;5.65;;;3.45;;
59516;SDS011;45342;42.662;27.718;2022-09-09T13:46:22;8.93;;;4.22;;
59516;SDS011;45342;42.662;27.718;2022-09-09T13:48:59;8.90;;;3.90;;
59516;SDS011;45342;42.662;27.718;2022-09-09T13:51:36;5.50;;;4.07;;
59516;SDS011;45342;42.662;27.718;2022-09-09T13:54:05;8.52;;;4.28;;
59516;SDS011;45342;42.662;27.718;2022-09-09T13:56:33;7.70;;;4.20;;
59516;SDS011;45342;42.662;27.718;2022-09-09T13:58:59;8.95;;;4.10;;
59516;SDS011;45342;42.662;27.718;2022-09-09T14:03:52;8.32;;;4.00;;
59516;SDS011;45342;42.662;27.718;2022-09-09T14:06:27;6.47;;;3.72;;
59516;SDS011;45342;42.662;27.718;2022-09-09T14:08:54;5.53;;;3.75;;
59516;SDS011;45342;42.662;27.718;2022-09-09T14:11:20;6.97;;;4.00;;
59516;SDS011;45342;42.662;27.718;2022-09-09T14:13:46;8.52;;;3.45;;
59516;SDS011;45342;42.662;27.718;2022-09-09T14:16:15;5.10;;;3.85;;
59516;SDS011;45342;42.662;27.718;2022-09-09T14:18:47;7.60;;;4.25;;
59516;SDS011;45342;42.662;27.718;2022-09-09T14:21:13;6.18;;;4.00;;
59516;SDS011;45342;42.662;27.718;2022-09-09T14:23:41;5.43;;;3.97;;
59516;SDS011;45342;42.662;27.718;2022-09-09T14:26:07;5.43;;;3.75;;
59516;SDS011;45342;42.662;27.718;2022-09-09T14:28:33;7.68;;;4.03;;
59516;SDS011;45342;42.662;27.718;2022-09-09T14:31:05;5.82;;;4.20;;
59516;SDS011;45342;42.662;27.718;2022-09-09T14:35:57;6.60;;;3.80;;
59516;SDS011;45342;42.662;27.718;2022-09-09T14:38:23;6.07;;;4.00;;
59516;SDS011;45342;42.662;27.718;2022-09-09T14:43:14;6.18;;;3.95;;
59516;SDS011;45342;42.662;27.718;2022-09-09T14:45:40;6.70;;;3.92;;
59516;SDS011;45342;42.662;27.718;2022-09-09T14:48:06;6.78;;;4.10;;
59516;SDS011;45342;42.662;27.718;2022-09-09T14:52:57;9.30;;;4.50;;
59516;SDS011;45342;42.662;27.718;2022-09-09T14:55:23;6.97;;;4.75;;
59516;SDS011;45342;42.662;27.718;2022-09-09T14:57:48;9.55;;;4.68;;
59516;SDS011;45342;42.662;27.718;2022-09-09T15:00:15;10.10;;;5.15;;
59516;SDS011;45342;42.662;27.718;2022-09-09T15:05:07;7.38;;;4.75;;
59516;SDS011;45342;42.662;27.718;2022-09-09T15:07:33;11.05;;;4.93;;
59516;SDS011;45342;42.662;27.718;2022-09-09T15:12:25;8.55;;;4.70;;
59516;SDS011;45342;42.662;27.718;2022-09-09T15:14:53;7.10;;;4.75;;
59516;SDS011;45342;42.662;27.718;2022-09-09T15:17:20;10.05;;;4.75;;
59516;SDS011;45342;42.662;27.718;2022-09-09T15:22:11;15.23;;;5.00;;
59516;SDS011;45342;42.662;27.718;2022-09-09T15:27:02;8.15;;;5.53;;
59516;SDS011;45342;42.662;27.718;2022-09-09T15:29:28;13.43;;;5.25;;
59516;SDS011;45342;42.662;27.718;2022-09-09T15:34:23;11.32;;;5.65;;
59516;SDS011;45342;42.662;27.718;2022-09-09T15:39:15;10.32;;;5.40;;
59516;SDS011;45342;42.662;27.718;2022-09-09T15:41:45;8.63;;;5.38;;
59516;SDS011;45342;42.662;27.718;2022-09-09T15:44:12;9.50;;;5.28;;
59516;SDS011;45342;42.662;27.718;2022-09-09T15:49:08;8.25;;;5.40;;
59516;SDS011;45342;42.662;27.718;2022-09-09T15:51:38;8.27;;;5.15;;
59516;SDS011;45342;42.662;27.718;2022-09-09T15:54:06;11.05;;;5.55;;
59516;SDS011;45342;42.662;27.718;2022-09-09T15:56:32;9.52;;;5.40;;
59516;SDS011;45342;42.662;27.718;2022-09-09T16:01:24;7.55;;;5.28;;
59516;SDS011;45342;42.662;27.718;2022-09-09T16:03:50;9.93;;;5.18;;
59516;SDS011;45342;42.662;27.718;2022-09-09T16:08:43;7.85;;;5.30;;
59516;SDS011;45342;42.662;27.718;2022-09-09T16:11:13;8.02;;;5.32;;
59516;SDS011;45342;42.662;27.718;2022-09-09T16:13:41;7.78;;;5.50;;
59516;SDS011;45342;42.662;27.718;2022-09-09T16:16:09;9.57;;;5.53;;
59516;SDS011;45342;42.662;27.718;2022-09-09T16:18:36;7.20;;;5.20;;
59516;SDS011;45342;42.662;27.718;2022-09-09T16:21:17;8.73;;;5.63;;
59516;SDS011;45342;42.662;27.718;2022-09-09T16:23:44;11.13;;;5.45;;
59516;SDS011;45342;42.662;27.718;2022-09-09T16:28:36;7.40;;;5.20;;
59516;SDS011;45342;42.662;27.718;2022-09-09T16:33:31;8.68;;;6.05;;
59516;SDS011;45342;42.662;27.718;2022-09-09T16:38:22;8.07;;;5.35;;
59516;SDS011;45342;42.662;27.718;2022-09-09T16:43:15;11.00;;;6.15;;
59516;SDS011;45342;42.662;27.718;2022-09-09T16:48:07;10.52;;;5.63;;
59516;SDS011;45342;42.662;27.718;2022-09-09T16:52:58;8.80;;;5.63;;
59516;SDS011;45342;42.662;27.718;2022-09-09T16:55:23;9.75;;;5.78;;
59516;SDS011;45342;42.662;27.718;2022-09-09T16:57:51;10.05;;;5.80;;
59516;SDS011;45342;42.662;27.718;2022-09-09T17:02:43;8.10;;;5.60;;
59516;SDS011;45342;42.662;27.718;2022-09-09T17:05:10;8.07;;;5.53;;
59516;SDS011;45342;42.662;27.718;2022-09-09T17:07:37;8.10;;;5.38;;
59516;SDS011;45342;42.662;27.718;2022-09-09T17:10:04;8.63;;;5.93;;
59516;SDS011;45342;42.662;27.718;2022-09-09T17:12:32;8.57;;;5.57;;
59516;SDS011;45342;42.662;27.718;2022-09-09T17:15:02;9.35;;;5.88;;
59516;SDS011;45342;42.662;27.718;2022-09-09T17:17:28;8.27;;;5.88;;
59516;SDS011;45342;42.662;27.718;2022-09-09T17:22:19;7.57;;;5.55;;
59516;SDS011;45342;42.662;27.718;2022-09-09T17:24:46;9.43;;;6.05;;
59516;SDS011;45342;42.662;27.718;2022-09-09T17:27:14;9.43;;;5.95;;
59516;SDS011;45342;42.662;27.718;2022-09-09T17:29:40;7.53;;;5.40;;
59516;SDS011;45342;42.662;27.718;2022-09-09T17:34:32;8.10;;;5.75;;
59516;SDS011;45342;42.662;27.718;2022-09-09T17:36:58;8.18;;;5.45;;
59516;SDS011;45342;42.662;27.718;2022-09-09T17:41:49;7.00;;;5.18;;
59516;SDS011;45342;42.662;27.718;2022-09-09T17:44:17;7.30;;;5.50;;
59516;SDS011;45342;42.662;27.718;2022-09-09T17:46:44;7.47;;;5.43;;
59516;SDS011;45342;42.662;27.718;2022-09-09T17:51:40;6.70;;;5.38;;
59516;SDS011;45342;42.662;27.718;2022-09-09T17:54:08;7.68;;;5.57;;
59516;SDS011;45342;42.662;27.718;2022-09-09T17:56:36;7.30;;;5.47;;
59516;SDS011;45342;42.662;27.718;2022-09-09T17:59:03;7.00;;;5.18;;
59516;SDS011;45342;42.662;27.718;2022-09-09T18:01:34;6.45;;;5.18;;
59516;SDS011;45342;42.662;27.718;2022-09-09T18:04:23;6.85;;;5.10;;
59516;SDS011;45342;42.662;27.718;2022-09-09T18:09:17;7.63;;;4.95;;
59516;SDS011;45342;42.662;27.718;2022-09-09T18:11:48;6.20;;;4.82;;
59516;SDS011;45342;42.662;27.718;2022-09-09T18:14:19;8.05;;;5.15;;
59516;SDS011;45342;42.662;27.718;2022-09-09T18:16:46;5.95;;;4.60;;
59516;SDS011;45342;42.662;27.718;2022-09-09T18:19:13;5.55;;;4.47;;
59516;SDS011;45342;42.662;27.718;2022-09-09T18:21:40;7.32;;;4.85;;
59516;SDS011;45342;42.662;27.718;2022-09-09T18:24:07;6.93;;;4.95;;
59516;SDS011;45342;42.662;27.718;2022-09-09T18:26:33;6.80;;;5.03;;
59516;SDS011;45342;42.662;27.718;2022-09-09T18:29:00;8.75;;;5.13;;
59516;SDS011;45342;42.662;27.718;2022-09-09T18:31:29;8.63;;;5.20;;
59516;SDS011;45342;42.662;27.718;2022-09-09T18:36:25;7.37;;;4.80;;
59516;SDS011;45342;42.662;27.718;2022-09-09T18:38:55;7.93;;;4.72;;
59516;SDS011;45342;42.662;27.718;2022-09-09T18:41:24;6.47;;;4.70;;